createdAt,value
2022-12-04T00:00:37.176Z,1.06
2022-12-04T00:04:04.727Z,1.05
2022-12-04T00:07:31.486Z,1.02
2022-12-04T00:10:58.883Z,1.01
2022-12-04T00:14:27.114Z,1.03
2022-12-04T00:17:54.056Z,1.05
2022-12-04T00:21:21.914Z,1.09
2022-12-04T00:24:48.825Z,1.17
2022-12-04T00:28:15.808Z,1.23
2022-12-04T00:31:43.809Z,1.27
2022-12-04T00:35:11.765Z,1.35
2022-12-04T00:38:39.287Z,1.42
2022-12-04T00:42:06.119Z,1.49
2022-12-04T00:45:32.489Z,1.51
2022-12-04T00:49:02.895Z,1.53
2022-12-04T00:52:29.602Z,1.52
2022-12-04T00:55:56.599Z,1.50
2022-12-04T00:59:23.466Z,1.49
2022-12-04T01:03:10.059Z,1.47
2022-12-04T01:06:42.044Z,1.42
2022-12-04T01:10:13.582Z,1.40
2022-12-04T01:13:41.002Z,1.36
2022-12-04T01:17:09.735Z,1.35
2022-12-04T01:20:35.744Z,1.35
2022-12-04T01:24:02.447Z,1.35
2022-12-04T01:27:29.225Z,1.36
2022-12-04T01:31:10.452Z,1.39
2022-12-04T01:34:39.931Z,1.43
2022-12-04T01:38:10.213Z,1.50
2022-12-04T01:41:38.369Z,1.57
2022-12-04T01:45:36.648Z,1.65
2022-12-04T01:49:04.696Z,1.74
2022-12-04T01:52:31.384Z,1.81
2022-12-04T01:55:58.889Z,1.83
2022-12-04T01:59:29.831Z,1.86
2022-12-04T02:02:56.929Z,1.88
2022-12-04T02:06:24.394Z,1.87
2022-12-04T02:09:56.539Z,1.86
2022-12-04T02:13:32.659Z,1.83
2022-12-04T02:17:10.288Z,1.80
2022-12-04T02:20:45.122Z,1.77
2022-12-04T02:24:28.771Z,1.72
2022-12-04T02:28:04.930Z,1.69
2022-12-04T02:31:38.529Z,1.66
2022-12-04T02:35:08.773Z,1.66
2022-12-04T02:38:42.161Z,1.64
2022-12-04T02:42:17.063Z,1.67
2022-12-04T02:45:47.957Z,1.71
2022-12-04T02:49:19.939Z,1.74
2022-12-04T02:52:54.818Z,1.80
2022-12-04T02:56:27.807Z,1.86
2022-12-04T02:59:58.771Z,1.92
2022-12-04T03:03:29.842Z,1.97
2022-12-04T03:07:01.233Z,2.02
2022-12-04T03:10:34.258Z,2.05
2022-12-04T03:14:08.337Z,2.08
2022-12-04T03:17:40.452Z,2.12
2022-12-04T03:21:12.485Z,2.13
2022-12-04T03:24:42.431Z,2.11
2022-12-04T03:28:20.423Z,2.07
2022-12-04T03:31:52.697Z,2.04
2022-12-04T03:35:25.017Z,2.01
2022-12-04T03:38:58.760Z,1.97
2022-12-04T03:42:31.629Z,1.94
2022-12-04T03:46:05.167Z,1.86
2022-12-04T03:49:40.000Z,1.85
2022-12-04T03:53:16.204Z,1.88
2022-12-04T03:56:46.364Z,1.92
2022-12-04T04:00:18.230Z,1.96
2022-12-04T04:03:50.487Z,2.02
2022-12-04T04:07:23.161Z,2.07
2022-12-04T04:10:50.822Z,2.13
2022-12-04T04:14:52.060Z,2.17
2022-12-04T04:18:36.492Z,2.21
2022-12-04T04:22:41.710Z,2.23
2022-12-04T04:26:10.429Z,2.25
2022-12-04T04:29:39.897Z,2.23
2022-12-04T04:33:12.719Z,2.23
2022-12-04T04:36:47.188Z,2.18
2022-12-04T04:40:20.424Z,2.13
2022-12-04T04:43:51.087Z,2.08
2022-12-04T04:47:28.214Z,2.02
2022-12-04T04:50:57.499Z,1.99
2022-12-04T04:54:26.640Z,1.95
2022-12-04T04:57:53.418Z,1.94
2022-12-04T05:01:23.176Z,1.95
2022-12-04T05:04:49.964Z,1.96
2022-12-04T05:08:16.983Z,1.99
2022-12-04T05:11:43.776Z,2.04
2022-12-04T05:15:12.165Z,2.10
2022-12-04T05:18:38.553Z,2.08
2022-12-04T05:22:05.848Z,2.16
2022-12-04T05:25:32.089Z,2.21
2022-12-04T05:28:58.935Z,2.28
2022-12-04T05:32:27.235Z,2.28
2022-12-04T05:36:01.506Z,2.31
2022-12-04T05:39:27.982Z,2.32
2022-12-04T05:42:54.676Z,2.33
2022-12-04T05:46:21.133Z,2.32
2022-12-04T05:49:47.425Z,2.32
2022-12-04T05:53:14.009Z,2.28
2022-12-04T05:56:41.021Z,2.25
2022-12-04T06:00:10.466Z,2.21
2022-12-04T06:03:39.846Z,2.16
2022-12-04T06:07:07.293Z,2.08
2022-12-04T06:10:37.313Z,2.12
2022-12-04T06:14:06.171Z,2.11
2022-12-04T06:17:32.842Z,2.13
2022-12-04T06:21:02.155Z,2.15
2022-12-04T06:24:29.032Z,2.20
2022-12-04T06:27:56.174Z,2.22
2022-12-04T06:31:23.321Z,2.27
2022-12-04T06:34:54.147Z,2.31
2022-12-04T06:38:21.980Z,2.37
2022-12-04T06:41:49.237Z,2.43
2022-12-04T06:45:16.384Z,2.47
2022-12-04T06:48:46.186Z,2.44
2022-12-04T06:52:13.123Z,2.39
2022-12-04T06:55:39.750Z,2.39
2022-12-04T06:59:07.332Z,2.37
2022-12-04T07:02:35.027Z,2.34
2022-12-04T07:06:13.506Z,2.31
2022-12-04T07:09:40.197Z,2.28
2022-12-04T07:13:07.614Z,2.23
2022-12-04T07:16:40.266Z,2.20
2022-12-04T07:20:09.607Z,2.16
2022-12-04T07:23:36.304Z,2.13
2022-12-04T07:27:02.998Z,2.16
2022-12-04T07:30:30.932Z,2.19
2022-12-04T07:33:58.199Z,2.21
2022-12-04T07:37:26.680Z,2.25
2022-12-04T07:40:53.572Z,2.31
2022-12-04T07:44:28.360Z,2.37
2022-12-04T07:47:54.835Z,2.41
2022-12-04T07:51:23.553Z,2.45
2022-12-04T07:54:50.727Z,2.47
2022-12-04T07:58:17.785Z,2.44
2022-12-04T08:01:44.640Z,2.44
2022-12-04T08:05:12.130Z,2.42
2022-12-04T08:08:39.238Z,2.40
2022-12-04T08:12:05.834Z,2.37
2022-12-04T08:15:32.724Z,2.34
2022-12-04T08:18:59.769Z,2.32
2022-12-04T08:22:26.942Z,2.25
2022-12-04T08:25:53.531Z,2.20
2022-12-04T08:29:20.446Z,2.16
2022-12-04T08:32:46.753Z,2.16
2022-12-04T08:36:16.050Z,2.18
2022-12-04T08:39:42.731Z,2.21
2022-12-04T08:43:10.711Z,2.25
2022-12-04T08:46:37.643Z,2.28
2022-12-04T08:50:05.432Z,2.35
2022-12-04T08:53:33.669Z,2.41
2022-12-04T08:57:04.058Z,2.44
2022-12-04T09:00:31.820Z,2.47
2022-12-04T09:03:59.891Z,2.50
2022-12-04T09:07:27.541Z,2.48
2022-12-04T09:10:54.501Z,2.50
2022-12-04T09:14:26.066Z,2.47
2022-12-04T09:17:54.065Z,2.46
2022-12-04T09:21:22.942Z,2.45
2022-12-04T09:24:51.661Z,2.44
2022-12-04T09:28:19.204Z,2.42
2022-12-04T09:31:46.695Z,2.41
2022-12-04T09:35:13.710Z,2.38
2022-12-04T09:38:40.550Z,2.35
2022-12-04T09:42:26.855Z,2.35
2022-12-04T09:45:57.674Z,2.37
2022-12-04T09:49:28.379Z,2.39
2022-12-04T09:52:59.018Z,2.43
2022-12-04T09:56:30.583Z,2.47
2022-12-04T09:59:58.967Z,2.56
2022-12-04T10:03:29.789Z,2.64
2022-12-04T10:07:04.522Z,2.69
2022-12-04T10:10:39.568Z,2.79
2022-12-04T10:14:58.644Z,2.84
2022-12-04T10:18:42.566Z,2.87
2022-12-04T10:22:19.331Z,2.84
2022-12-04T10:25:46.303Z,2.81
2022-12-04T10:29:21.874Z,2.77
2022-12-04T10:32:59.663Z,2.74
2022-12-04T10:36:34.160Z,2.70
2022-12-04T10:40:07.795Z,2.69
2022-12-04T10:43:43.260Z,2.66
2022-12-04T10:47:15.143Z,2.61
2022-12-04T10:50:42.074Z,2.57
2022-12-04T10:54:20.049Z,2.57
2022-12-04T10:57:47.764Z,2.62
2022-12-04T11:01:16.502Z,2.66
2022-12-04T11:04:44.633Z,2.73
2022-12-04T11:08:21.418Z,2.79
2022-12-04T11:11:48.262Z,2.86
2022-12-04T11:15:18.543Z,2.93
2022-12-04T11:18:53.052Z,2.98
2022-12-04T11:22:22.682Z,3.02
2022-12-04T11:25:51.994Z,3.01
2022-12-04T11:29:20.511Z,2.97
2022-12-04T11:33:02.228Z,2.91
2022-12-04T11:36:33.741Z,2.77
2022-12-04T11:40:19.894Z,2.66
2022-12-04T11:43:55.243Z,2.56
2022-12-04T11:47:26.952Z,2.53
2022-12-04T11:51:03.819Z,2.51
2022-12-04T11:54:37.242Z,2.49
2022-12-04T11:58:19.717Z,2.45
2022-12-04T12:01:58.028Z,2.45
2022-12-04T12:05:41.735Z,2.48
2022-12-04T12:09:29.725Z,2.51
2022-12-04T12:13:07.920Z,2.52
2022-12-04T12:16:51.361Z,2.55
2022-12-04T12:20:24.792Z,2.60
2022-12-04T12:23:58.730Z,2.68
2022-12-04T12:27:43.070Z,2.69
2022-12-04T12:31:37.648Z,2.68
2022-12-04T12:35:06.502Z,2.73
2022-12-04T12:38:40.769Z,2.72
2022-12-04T12:42:12.792Z,2.69
2022-12-04T12:45:47.657Z,2.66
2022-12-04T12:49:21.101Z,2.61
2022-12-04T12:52:55.302Z,2.54
2022-12-04T12:56:24.833Z,2.47
2022-12-04T12:59:55.509Z,2.43
2022-12-04T13:03:31.682Z,2.39
2022-12-04T13:07:12.135Z,2.37
2022-12-04T13:10:46.157Z,2.32
2022-12-04T13:14:16.426Z,2.32
2022-12-04T13:17:44.166Z,2.30
2022-12-04T13:21:22.125Z,2.30
2022-12-04T13:25:05.295Z,2.32
2022-12-04T13:28:38.200Z,2.39
2022-12-04T13:32:33.813Z,2.41
2022-12-04T13:36:10.405Z,2.45
2022-12-04T13:40:15.577Z,2.41
2022-12-04T13:43:48.651Z,2.42
2022-12-04T13:47:26.778Z,2.45
2022-12-04T13:51:08.446Z,2.48
2022-12-04T13:54:36.419Z,2.49
2022-12-04T13:58:05.128Z,2.48
2022-12-04T14:01:40.304Z,2.46
2022-12-04T14:05:12.650Z,2.42
2022-12-04T14:08:46.398Z,2.38
2022-12-04T14:12:16.615Z,2.35
2022-12-04T14:15:43.733Z,2.28
2022-12-04T14:19:26.040Z,2.22
2022-12-04T14:22:52.317Z,2.19
2022-12-04T14:30:23.625Z,2.14
2022-12-04T14:33:54.795Z,2.12
2022-12-04T14:37:28.150Z,2.14
2022-12-04T14:40:56.383Z,2.17
2022-12-04T14:44:28.985Z,2.15
2022-12-04T14:48:11.522Z,2.17
2022-12-04T14:51:42.257Z,2.25
2022-12-04T14:55:23.815Z,2.34
2022-12-04T14:58:50.944Z,2.37
2022-12-04T15:02:21.312Z,2.36
2022-12-04T15:05:48.622Z,2.37
2022-12-04T15:09:38.859Z,2.38
2022-12-04T15:13:05.491Z,2.40
2022-12-04T15:16:31.906Z,2.40
2022-12-04T15:20:09.962Z,2.41
2022-12-04T15:23:41.609Z,2.40
2022-12-04T15:27:10.884Z,2.39
2022-12-04T15:30:41.967Z,2.35
2022-12-04T15:34:15.907Z,2.27
2022-12-04T15:37:44.001Z,2.17
2022-12-04T15:41:34.617Z,2.14
2022-12-04T15:45:02.820Z,2.11
2022-12-04T15:48:32.537Z,2.07
2022-12-04T15:52:15.962Z,2.08
2022-12-04T15:55:51.401Z,2.14
2022-12-04T15:59:19.799Z,2.20
2022-12-04T16:02:47.763Z,2.25
2022-12-04T16:06:22.186Z,2.26
2022-12-04T16:10:03.174Z,2.26
2022-12-04T16:13:35.980Z,2.30
2022-12-04T16:17:06.159Z,2.32
2022-12-04T16:20:34.052Z,2.28
2022-12-04T16:24:06.282Z,2.36
2022-12-04T16:27:33.025Z,2.37
2022-12-04T16:31:00.500Z,2.35
2022-12-04T16:34:28.156Z,2.27
2022-12-04T16:37:54.891Z,2.18
2022-12-04T16:41:25.534Z,2.21
2022-12-04T16:44:55.218Z,2.18
2022-12-04T16:48:27.838Z,2.08
2022-12-04T16:51:59.318Z,2.08
2022-12-04T16:55:33.518Z,2.05
2022-12-04T16:59:02.478Z,2.03
2022-12-04T17:02:30.451Z,2.02
2022-12-04T17:05:58.508Z,2.02
2022-12-04T17:09:25.929Z,2.03
2022-12-04T17:12:54.727Z,2.08
2022-12-04T17:16:22.554Z,2.09
2022-12-04T17:19:49.689Z,2.12
2022-12-04T17:23:16.222Z,2.16
2022-12-04T17:26:42.802Z,2.22
2022-12-04T17:30:11.485Z,2.26
2022-12-04T17:33:39.412Z,2.27
2022-12-04T17:37:05.958Z,2.28
2022-12-04T17:40:33.390Z,2.31
2022-12-04T17:44:02.425Z,2.29
2022-12-04T17:47:29.616Z,2.22
2022-12-04T17:51:10.874Z,2.14
2022-12-04T17:54:43.762Z,2.07
2022-12-04T17:58:11.053Z,2.02
2022-12-04T18:01:40.534Z,2.00
2022-12-04T18:05:10.863Z,2.00
2022-12-04T18:08:38.340Z,2.02
2022-12-04T18:12:05.422Z,2.04
2022-12-04T18:15:31.854Z,2.05
2022-12-04T18:19:02.567Z,2.07
2022-12-04T18:22:30.669Z,2.07
2022-12-04T18:25:59.662Z,2.06
2022-12-04T18:29:27.823Z,2.04
2022-12-04T18:32:58.511Z,2.07
2022-12-04T18:36:27.595Z,2.11
2022-12-04T18:39:54.677Z,2.14
2022-12-04T18:43:22.172Z,2.17
2022-12-04T18:46:53.535Z,2.22
2022-12-04T18:50:20.297Z,2.24
2022-12-04T18:53:47.430Z,2.25
2022-12-04T18:57:14.712Z,2.25
2022-12-04T19:00:42.556Z,2.22
2022-12-04T19:04:11.689Z,2.13
2022-12-04T19:07:39.106Z,2.09
2022-12-04T19:11:12.215Z,2.06
2022-12-04T19:14:40.609Z,2.04
2022-12-04T19:18:10.759Z,2.05
2022-12-04T19:21:41.920Z,2.11
2022-12-04T19:25:14.288Z,2.20
2022-12-04T19:28:45.259Z,2.25
2022-12-04T19:32:14.342Z,2.26
2022-12-04T19:35:41.121Z,2.29
2022-12-04T19:39:09.666Z,2.32
2022-12-04T19:42:36.867Z,2.37
2022-12-04T19:46:04.544Z,2.37
2022-12-04T19:49:31.365Z,2.38
2022-12-04T19:53:00.591Z,2.42
2022-12-04T19:56:31.632Z,2.40
2022-12-04T19:59:58.424Z,2.37
2022-12-04T20:03:26.738Z,2.30
2022-12-04T20:06:53.688Z,2.25
2022-12-04T20:10:22.953Z,2.20
2022-12-04T20:13:55.627Z,2.15
2022-12-04T20:17:22.536Z,2.11
2022-12-04T20:20:58.025Z,2.07
2022-12-04T20:24:25.249Z,2.03
2022-12-04T20:27:51.810Z,2.03
2022-12-04T20:31:22.061Z,2.03
2022-12-04T20:34:49.875Z,2.04
2022-12-04T20:38:19.188Z,2.09
2022-12-04T20:41:46.822Z,2.14
2022-12-04T20:45:14.292Z,2.17
2022-12-04T20:48:49.198Z,2.20
2022-12-04T20:52:16.155Z,2.25
2022-12-04T20:55:44.389Z,2.27
2022-12-04T20:59:17.051Z,2.28
2022-12-04T21:02:45.057Z,2.23
2022-12-04T21:06:20.267Z,2.22
2022-12-04T21:09:51.044Z,2.18
2022-12-04T21:13:35.760Z,2.13
2022-12-04T21:17:18.585Z,2.13
2022-12-04T21:20:45.594Z,2.07
2022-12-04T21:24:19.985Z,2.00
2022-12-04T21:27:49.531Z,1.94
2022-12-04T21:31:29.158Z,1.92
2022-12-04T21:34:56.485Z,1.95
2022-12-04T21:38:26.233Z,1.97
2022-12-04T21:42:11.071Z,1.96
2022-12-04T21:45:38.265Z,1.94
2022-12-04T21:49:05.244Z,1.95
2022-12-04T21:52:39.925Z,1.96
2022-12-04T21:56:07.546Z,2.00
2022-12-04T21:59:41.886Z,2.03
2022-12-04T22:03:14.642Z,2.06
2022-12-04T22:06:50.393Z,2.07
2022-12-04T22:10:21.270Z,2.14
2022-12-04T22:13:51.331Z,2.15
2022-12-04T22:17:18.163Z,2.17
2022-12-04T22:20:52.307Z,2.20
2022-12-04T22:24:19.406Z,2.21
2022-12-04T22:27:50.052Z,2.17
2022-12-04T22:31:19.801Z,2.16
2022-12-04T22:34:48.854Z,2.13
2022-12-04T22:38:18.360Z,2.08
2022-12-04T22:41:46.821Z,2.03
2022-12-04T22:45:14.276Z,1.99
2022-12-04T22:48:44.085Z,1.96
2022-12-04T22:52:13.732Z,1.94
2022-12-04T22:55:42.132Z,1.95
2022-12-04T22:59:09.376Z,1.99
2022-12-04T23:02:37.986Z,2.01
2022-12-04T23:06:05.012Z,2.05
2022-12-04T23:09:32.032Z,2.09
2022-12-04T23:12:58.989Z,2.14
2022-12-04T23:16:26.609Z,2.18
2022-12-04T23:19:53.520Z,2.23
2022-12-04T23:23:20.204Z,2.28
2022-12-04T23:26:50.156Z,2.33
2022-12-04T23:30:20.223Z,2.34
2022-12-04T23:33:52.432Z,2.33
2022-12-04T23:37:24.298Z,2.32
2022-12-04T23:40:53.451Z,2.24
2022-12-04T23:44:20.200Z,2.22
2022-12-04T23:47:49.140Z,2.20
2022-12-04T23:51:21.063Z,2.16
2022-12-04T23:54:48.571Z,2.11
2022-12-04T23:58:15.429Z,2.07
